createdAt,value
2018-06-30T00:02:17.489Z,101577.75
2018-06-30T00:04:50.989Z,101578.27
2018-06-30T00:07:20.443Z,101585.97
2018-06-30T00:09:48.972Z,101581.75
2018-06-30T00:12:17.595Z,101589.83
2018-06-30T00:14:46.238Z,101583.86
2018-06-30T00:17:14.887Z,101592.88
2018-06-30T00:19:43.465Z,101589.50
2018-06-30T00:22:12.041Z,101584.34
2018-06-30T00:24:40.674Z,101596.31
2018-06-30T00:27:41.847Z,101596.03
2018-06-30T00:30:10.443Z,101590.61
2018-06-30T00:32:38.983Z,101589.42
2018-06-30T00:35:07.616Z,101588.61
2018-06-30T00:37:36.242Z,101594.97
2018-06-30T00:40:05.041Z,101597.01
2018-06-30T00:42:33.573Z,101599.33
2018-06-30T00:45:02.166Z,101603.81
2018-06-30T00:47:30.994Z,101606.98
2018-06-30T00:49:59.640Z,101604.46
2018-06-30T00:52:28.206Z,101604.66
2018-06-30T00:54:56.691Z,101602.94
2018-06-30T00:57:25.222Z,101602.23
2018-06-30T00:59:53.759Z,101607.70
2018-06-30T01:02:22.440Z,101607.90
2018-06-30T01:04:50.939Z,101603.51
2018-06-30T01:07:19.554Z,101600.98
2018-06-30T01:09:48.178Z,101598.08
2018-06-30T01:12:16.764Z,101593.36
2018-06-30T01:14:45.359Z,101591.72
2018-06-30T01:17:13.989Z,101594.48
2018-06-30T01:19:42.520Z,101593.80
2018-06-30T01:22:11.052Z,101593.02
2018-06-30T01:24:39.691Z,101600.14
2018-06-30T01:27:08.267Z,101598.50
2018-06-30T01:29:36.901Z,101596.81
2018-06-30T01:32:05.849Z,101607.39
2018-06-30T01:34:34.424Z,101605.41
2018-06-30T01:37:02.975Z,101605.53
2018-06-30T01:39:31.642Z,101534.14
2018-06-30T01:42:00.146Z,101604.33
2018-06-30T01:44:28.707Z,101608.74
2018-06-30T01:46:57.230Z,101610.13
2018-06-30T01:49:25.768Z,101610.67
2018-06-30T01:51:54.243Z,101611.56
2018-06-30T01:54:22.832Z,101606.40
2018-06-30T01:56:51.319Z,101605.50
2018-06-30T01:59:19.822Z,101604.56
2018-06-30T02:01:48.643Z,101620.88
2018-06-30T02:04:17.215Z,101622.20
2018-06-30T02:06:45.750Z,101620.09
2018-06-30T02:09:14.320Z,101627.66
2018-06-30T02:11:42.810Z,101623.75
2018-06-30T02:14:11.331Z,101625.13
2018-06-30T02:16:39.915Z,101632.28
2018-06-30T02:19:08.523Z,101628.70
2018-06-30T02:21:37.032Z,101635.70
2018-06-30T02:24:05.723Z,101638.34
2018-06-30T02:26:34.246Z,101626.87
2018-06-30T02:29:02.781Z,101629.41
2018-06-30T02:31:31.287Z,101626.53
2018-06-30T02:33:59.852Z,101629.05
2018-06-30T02:36:28.387Z,101634.09
2018-06-30T02:38:56.968Z,101637.85
2018-06-30T02:41:25.497Z,101640.08
2018-06-30T02:43:54.036Z,101641.59
2018-06-30T02:46:22.604Z,101641.72
2018-06-30T02:48:51.155Z,101646.75
2018-06-30T02:51:19.807Z,101645.55
2018-06-30T02:53:48.361Z,101641.03
2018-06-30T02:56:16.874Z,101649.72
2018-06-30T02:58:45.391Z,101645.30
2018-06-30T03:01:14.004Z,101646.08
2018-06-30T03:03:42.640Z,101648.84
2018-06-30T03:06:11.226Z,101653.48
2018-06-30T03:08:39.724Z,101650.95
2018-06-30T03:11:08.287Z,101640.31
2018-06-30T03:13:36.975Z,101647.63
2018-06-30T03:16:05.479Z,101649.90
2018-06-30T03:18:34.098Z,101653.17
2018-06-30T03:21:02.721Z,101654.83
2018-06-30T03:23:31.260Z,101652.86
2018-06-30T03:25:59.886Z,101656.16
2018-06-30T03:28:28.406Z,101657.50
2018-06-30T03:30:56.903Z,101661.39
2018-06-30T03:33:25.431Z,101662.20
2018-06-30T03:35:53.927Z,101662.12
2018-06-30T03:38:22.435Z,101660.11
2018-06-30T03:40:50.957Z,101667.92
2018-06-30T03:43:19.439Z,101658.95
2018-06-30T03:45:47.907Z,101663.98
2018-06-30T03:48:16.412Z,101664.63
2018-06-30T03:50:44.910Z,101662.64
2018-06-30T03:53:13.481Z,101662.50
2018-06-30T03:55:42.024Z,101655.02
2018-06-30T03:58:10.542Z,101654.19
2018-06-30T04:00:39.120Z,101650.15
2018-06-30T04:03:07.729Z,101649.38
2018-06-30T04:05:36.404Z,101658.45
2018-06-30T04:08:05.080Z,101653.00
2018-06-30T04:10:33.619Z,101658.03
2018-06-30T04:13:02.177Z,101660.25
2018-06-30T04:15:30.932Z,101651.80
2018-06-30T04:17:59.511Z,101651.15
2018-06-30T04:20:28.144Z,101663.83
2018-06-30T04:22:56.630Z,101655.84
2018-06-30T04:25:25.151Z,101655.62
2018-06-30T04:27:53.675Z,101653.31
2018-06-30T04:30:22.327Z,101658.89
2018-06-30T04:32:50.860Z,101654.91
2018-06-30T04:35:19.407Z,101658.34
2018-06-30T04:37:47.979Z,101655.69
2018-06-30T04:40:16.462Z,101657.08
2018-06-30T04:42:44.948Z,101647.95
2018-06-30T04:45:13.567Z,101648.95
2018-06-30T04:47:42.152Z,101646.02
2018-06-30T04:50:10.669Z,101651.39
2018-06-30T04:52:39.166Z,101657.37
2018-06-30T04:55:07.936Z,101650.02
2018-06-30T04:57:36.505Z,101654.06
2018-06-30T05:00:05.828Z,101646.53
2018-06-30T05:02:34.547Z,101654.94
2018-06-30T05:05:03.200Z,101659.92
2018-06-30T05:07:31.727Z,101657.55
2018-06-30T05:10:00.442Z,101658.91
2018-06-30T05:12:29.137Z,101662.86
2018-06-30T05:14:57.735Z,101654.27
2018-06-30T05:17:26.382Z,101660.23
2018-06-30T05:19:54.901Z,101660.96
2018-06-30T05:22:23.485Z,101657.86
2018-06-30T05:24:51.998Z,101669.87
2018-06-30T05:27:20.542Z,101662.89
2018-06-30T05:29:49.019Z,101673.39
2018-06-30T05:32:17.594Z,101673.81
2018-06-30T05:34:46.138Z,101669.19
2018-06-30T05:37:14.784Z,101664.37
2018-06-30T05:39:43.359Z,101671.91
2018-06-30T05:42:11.949Z,101666.67
2018-06-30T05:44:40.455Z,101673.53
2018-06-30T05:47:09.005Z,101670.62
2018-06-30T05:49:37.519Z,101671.08
2018-06-30T05:52:07.196Z,101680.82
2018-06-30T05:54:35.880Z,101678.71
2018-06-30T05:57:04.503Z,101674.73
2018-06-30T05:59:33.148Z,101682.55
2018-06-30T06:02:01.675Z,101673.58
2018-06-30T06:04:30.314Z,101670.00
2018-06-30T06:06:59.306Z,101666.09
2018-06-30T06:09:27.890Z,101673.22
2018-06-30T06:11:56.415Z,101670.75
2018-06-30T06:14:25.055Z,101665.78
2018-06-30T06:16:53.587Z,101665.31
2018-06-30T06:19:22.182Z,101673.08
2018-06-30T06:21:50.805Z,101671.62
2018-06-30T06:24:19.389Z,101671.98
2018-06-30T06:26:47.970Z,101675.62
2018-06-30T06:29:16.531Z,101670.39
2018-06-30T06:31:45.042Z,101668.72
2018-06-30T06:34:13.540Z,101666.18
2018-06-30T06:36:42.072Z,101659.90
2018-06-30T06:39:11.497Z,101662.00
2018-06-30T06:41:40.567Z,101674.14
2018-06-30T06:44:09.072Z,101664.78
2018-06-30T06:46:37.597Z,101670.84
2018-06-30T06:49:06.342Z,101661.44
2018-06-30T06:51:34.925Z,101663.70
2018-06-30T06:54:03.610Z,101665.55
2018-06-30T06:56:32.137Z,101661.52
2018-06-30T06:59:00.627Z,101663.80
2018-06-30T07:01:29.157Z,101658.45
2018-06-30T07:03:57.700Z,101654.63
2018-06-30T07:06:26.320Z,101658.91
2018-06-30T07:08:54.903Z,101664.63
2018-06-30T07:11:23.452Z,101663.13
2018-06-30T07:13:52.389Z,101662.55
2018-06-30T07:16:20.971Z,101662.05
2018-06-30T07:18:49.572Z,101659.34
2018-06-30T07:21:18.229Z,101665.63
2018-06-30T07:23:46.908Z,101664.19
2018-06-30T07:26:15.606Z,101662.95
2018-06-30T07:28:44.237Z,101659.77
2018-06-30T07:31:12.770Z,101660.53
2018-06-30T07:33:41.345Z,101658.36
2018-06-30T07:36:10.032Z,101655.56
2018-06-30T07:38:38.614Z,101654.68
2018-06-30T07:41:07.199Z,101657.36
2018-06-30T07:43:35.886Z,101656.52
2018-06-30T07:46:04.569Z,101661.61
2018-06-30T07:48:33.227Z,101655.48
2018-06-30T07:51:01.912Z,101645.30
2018-06-30T07:53:30.624Z,101657.94
2018-06-30T07:55:59.189Z,101661.78
2018-06-30T07:58:27.699Z,101652.19
2018-06-30T08:00:56.474Z,101654.22
2018-06-30T08:03:25.057Z,101657.95
2018-06-30T08:05:53.946Z,101654.69
2018-06-30T08:08:22.529Z,101655.30
2018-06-30T08:10:51.061Z,101651.03
2018-06-30T08:13:19.591Z,101655.69
2018-06-30T08:15:48.127Z,101653.23
2018-06-30T08:18:17.022Z,101653.27
2018-06-30T08:20:45.647Z,101649.30
2018-06-30T08:23:14.168Z,101649.47
2018-06-30T08:25:42.814Z,101655.94
2018-06-30T08:28:11.461Z,101661.72
2018-06-30T08:30:40.083Z,101665.62
2018-06-30T08:33:08.575Z,101661.44
2018-06-30T08:35:37.150Z,101654.67
2018-06-30T08:38:05.832Z,101662.30
2018-06-30T08:40:34.825Z,101669.36
2018-06-30T08:43:03.405Z,101662.65
2018-06-30T08:45:31.912Z,101656.66
2018-06-30T08:48:00.516Z,101666.20
2018-06-30T08:50:29.156Z,101665.61
2018-06-30T08:55:40.910Z,101661.14
2018-06-30T08:58:09.546Z,101645.28
2018-06-30T09:00:38.254Z,101652.61
2018-06-30T09:03:06.917Z,101659.23
2018-06-30T09:05:35.601Z,101665.91
2018-06-30T09:08:04.157Z,101668.48
2018-06-30T09:10:32.743Z,101667.14
2018-06-30T09:13:01.283Z,101669.22
2018-06-30T09:15:29.896Z,101663.75
2018-06-30T09:17:58.461Z,101669.34
2018-06-30T09:20:27.101Z,101663.48
2018-06-30T09:22:55.631Z,101671.42
2018-06-30T09:25:24.572Z,101663.49
2018-06-30T09:27:53.158Z,101660.67
2018-06-30T09:30:21.738Z,101659.84
2018-06-30T09:32:50.322Z,101671.06
2018-06-30T09:35:19.005Z,101669.34
2018-06-30T09:37:47.589Z,101665.31
2018-06-30T09:40:16.219Z,101657.04
2018-06-30T09:42:44.887Z,101649.56
2018-06-30T09:45:13.440Z,101646.02
2018-06-30T09:47:42.125Z,101651.75
2018-06-30T09:50:10.912Z,101651.89
2018-06-30T09:52:39.598Z,101651.27
2018-06-30T09:55:08.240Z,101659.95
2018-06-30T09:57:36.945Z,101651.53
2018-06-30T10:00:07.496Z,101644.92
2018-06-30T10:02:36.181Z,101651.14
2018-06-30T10:05:04.882Z,101653.93
2018-06-30T10:07:33.547Z,101656.06
2018-06-30T10:10:02.071Z,101652.48
2018-06-30T10:12:30.597Z,101648.45
2018-06-30T10:14:59.091Z,101652.34
2018-06-30T10:17:27.591Z,101652.59
2018-06-30T10:19:56.134Z,101650.27
2018-06-30T10:22:24.710Z,101652.92
2018-06-30T10:24:53.325Z,101657.21
2018-06-30T10:27:21.966Z,101651.58
2018-06-30T10:29:50.596Z,101653.41
2018-06-30T10:32:19.176Z,101644.25
2018-06-30T10:34:47.758Z,101647.42
2018-06-30T10:37:16.316Z,101647.42
2018-06-30T10:39:44.830Z,101643.23
2018-06-30T10:42:13.467Z,101645.67
2018-06-30T10:44:42.133Z,101647.37
2018-06-30T10:47:10.715Z,101636.36
2018-06-30T10:49:39.255Z,101642.22
2018-06-30T10:52:07.839Z,101642.73
2018-06-30T10:54:36.470Z,101634.05
2018-06-30T10:57:05.107Z,101630.78
2018-06-30T10:59:34.662Z,101628.79
2018-06-30T11:02:03.364Z,101631.13
2018-06-30T11:04:31.928Z,101610.82
2018-06-30T11:07:00.434Z,101617.98
2018-06-30T11:09:29.097Z,101623.00
2018-06-30T11:11:57.731Z,101620.75
2018-06-30T11:14:26.967Z,101619.84
2018-06-30T11:16:55.613Z,101620.44
2018-06-30T11:19:24.300Z,101614.33
2018-06-30T11:21:52.790Z,101606.20
2018-06-30T11:24:21.466Z,101599.98
2018-06-30T11:26:50.041Z,101608.66
2018-06-30T11:29:18.714Z,101603.41
2018-06-30T11:31:47.258Z,101617.00
2018-06-30T11:34:15.842Z,101613.94
2018-06-30T11:36:44.351Z,101606.34
2018-06-30T11:39:13.827Z,101603.02
2018-06-30T11:41:43.287Z,101606.44
2018-06-30T11:44:12.218Z,101613.72
2018-06-30T11:46:40.775Z,101604.24
2018-06-30T11:49:09.344Z,101600.66
2018-06-30T11:51:38.299Z,101602.49
2018-06-30T11:54:07.226Z,101597.84
2018-06-30T11:56:36.221Z,101598.39
2018-06-30T11:59:04.904Z,101602.30
2018-06-30T12:01:36.294Z,101590.98
2018-06-30T12:04:04.988Z,101592.39
2018-06-30T12:06:33.578Z,101586.42
2018-06-30T12:09:02.127Z,101587.95
2018-06-30T12:11:30.735Z,101597.27
2018-06-30T12:13:59.370Z,101597.34
2018-06-30T12:16:27.957Z,101598.52
2018-06-30T12:18:56.483Z,101587.97
2018-06-30T12:21:25.116Z,101589.66
2018-06-30T12:23:53.623Z,101584.08
2018-06-30T12:26:22.239Z,101591.72
2018-06-30T12:28:50.813Z,101588.64
2018-06-30T12:31:19.348Z,101590.12
2018-06-30T12:33:47.930Z,101584.52
2018-06-30T12:36:16.513Z,101587.02
2018-06-30T12:38:45.041Z,101587.59
2018-06-30T12:41:13.595Z,101588.10
2018-06-30T12:43:42.214Z,101588.04
2018-06-30T12:46:10.887Z,101586.28
2018-06-30T12:48:39.528Z,101588.66
2018-06-30T12:51:08.236Z,101585.52
2018-06-30T12:53:37.205Z,101577.54
2018-06-30T12:56:06.350Z,101585.66
2018-06-30T12:58:34.986Z,101585.78
2018-06-30T13:01:03.673Z,101582.56
2018-06-30T13:03:32.258Z,101585.52
2018-06-30T13:06:00.799Z,101571.25
2018-06-30T13:08:29.299Z,101577.43
2018-06-30T13:10:57.859Z,101579.13
2018-06-30T13:13:26.850Z,101586.05
2018-06-30T13:15:55.351Z,101577.97
2018-06-30T13:18:23.895Z,101594.56
2018-06-30T13:20:52.538Z,101588.38
2018-06-30T13:23:21.226Z,101580.02
2018-06-30T13:25:49.753Z,101578.67
2018-06-30T13:28:18.388Z,101577.58
2018-06-30T13:30:46.977Z,101586.19
2018-06-30T13:33:15.658Z,101610.84
2018-06-30T13:35:44.240Z,101594.87
2018-06-30T13:38:12.925Z,101600.25
2018-06-30T13:40:41.524Z,101593.67
2018-06-30T13:43:10.220Z,101595.20
2018-06-30T13:45:41.747Z,101582.10
2018-06-30T13:48:10.534Z,101596.10
2018-06-30T13:50:39.222Z,101616.14
2018-06-30T13:53:07.800Z,101601.12
2018-06-30T13:55:36.539Z,101599.78
2018-06-30T13:58:05.626Z,101596.70
2018-06-30T14:00:34.344Z,101590.45
2018-06-30T14:03:02.952Z,101588.41
2018-06-30T14:05:31.517Z,101589.23
2018-06-30T14:08:00.034Z,101585.98
2018-06-30T14:10:28.651Z,101584.91
2018-06-30T14:12:57.181Z,101600.25
2018-06-30T14:15:25.764Z,101594.35
2018-06-30T14:17:54.272Z,101591.06
2018-06-30T14:20:22.883Z,101586.67
2018-06-30T14:22:51.416Z,101580.86
2018-06-30T14:25:19.994Z,101579.66
2018-06-30T14:27:48.739Z,101580.13
2018-06-30T14:30:17.575Z,101585.04
2018-06-30T14:32:46.155Z,101585.54
2018-06-30T14:35:14.739Z,101584.33
2018-06-30T14:37:43.417Z,101580.72
2018-06-30T14:40:12.107Z,101583.44
2018-06-30T14:42:40.689Z,101583.44
2018-06-30T14:45:09.375Z,101583.02
2018-06-30T14:47:37.879Z,101592.17
2018-06-30T14:50:06.540Z,101581.41
2018-06-30T14:52:35.225Z,101582.02
2018-06-30T14:55:03.948Z,101580.67
2018-06-30T14:57:32.519Z,101584.65
2018-06-30T15:00:01.077Z,101578.73
2018-06-30T15:02:29.823Z,101586.06
2018-06-30T15:04:58.345Z,101587.02
2018-06-30T15:07:26.987Z,101594.55
2018-06-30T15:09:55.511Z,101588.83
2018-06-30T15:12:24.123Z,101582.10
2018-06-30T15:14:52.778Z,101595.83
2018-06-30T15:17:21.278Z,101576.69
2018-06-30T15:19:49.868Z,101518.67
2018-06-30T15:22:18.527Z,101580.21
2018-06-30T15:24:47.110Z,101590.38
2018-06-30T15:27:15.744Z,101576.63
2018-06-30T15:29:44.281Z,101582.37
2018-06-30T15:32:12.960Z,101571.52
2018-06-30T15:34:41.615Z,101569.45
2018-06-30T15:37:10.229Z,101576.02
2018-06-30T15:39:38.875Z,101566.22
2018-06-30T15:42:07.455Z,101567.02
2018-06-30T15:44:36.081Z,101567.20
2018-06-30T15:47:04.835Z,101560.34
2018-06-30T15:49:33.322Z,101560.89
2018-06-30T15:52:02.084Z,101565.39
2018-06-30T15:54:30.662Z,101564.59
2018-06-30T15:56:59.407Z,101558.85
2018-06-30T15:59:28.008Z,101562.24
2018-06-30T16:01:56.654Z,101563.70
2018-06-30T16:04:25.218Z,101558.13
2018-06-30T16:06:53.833Z,101564.05
2018-06-30T16:09:22.378Z,101557.84
2018-06-30T16:11:50.996Z,101563.70
2018-06-30T16:14:19.544Z,101567.12
2018-06-30T16:16:48.170Z,101561.28
2018-06-30T16:19:16.804Z,101556.78
2018-06-30T16:21:45.387Z,101559.52
2018-06-30T16:24:14.021Z,101570.86
2018-06-30T16:26:42.704Z,101550.99
2018-06-30T16:29:11.204Z,101561.63
2018-06-30T16:31:39.727Z,101551.51
2018-06-30T16:34:08.352Z,101558.12
2018-06-30T16:36:36.839Z,101550.05
2018-06-30T16:39:08.250Z,101554.47
2018-06-30T16:41:36.772Z,101556.48
2018-06-30T16:44:05.816Z,101556.34
2018-06-30T16:46:34.367Z,101556.97
2018-06-30T16:49:02.888Z,101559.20
2018-06-30T16:51:31.706Z,101562.90
2018-06-30T16:54:00.289Z,101554.77
2018-06-30T16:56:28.831Z,101560.40
2018-06-30T16:58:57.379Z,101560.94
2018-06-30T17:01:25.895Z,101576.05
2018-06-30T17:03:54.460Z,101567.61
2018-06-30T17:06:23.204Z,101577.63
2018-06-30T17:08:51.787Z,101572.10
2018-06-30T17:11:20.313Z,101564.96
2018-06-30T17:13:48.871Z,101562.44
2018-06-30T17:16:17.433Z,101572.77
2018-06-30T17:18:45.914Z,101571.16
2018-06-30T17:21:14.436Z,101567.87
2018-06-30T17:23:45.181Z,101569.53
2018-06-30T17:26:13.752Z,101577.86
2018-06-30T17:28:42.279Z,101577.14
2018-06-30T17:31:11.721Z,101575.33
2018-06-30T17:33:40.303Z,101574.89
2018-06-30T17:36:08.912Z,101573.16
2018-06-30T17:38:37.648Z,101573.80
2018-06-30T17:41:06.293Z,101576.23
2018-06-30T17:43:34.867Z,101578.66
2018-06-30T17:46:03.605Z,101583.48
2018-06-30T17:48:32.185Z,101590.80
2018-06-30T17:51:00.809Z,101591.31
2018-06-30T17:53:29.493Z,101582.41
2018-06-30T17:55:58.051Z,101586.80
2018-06-30T17:58:26.721Z,101587.28
2018-06-30T18:00:55.407Z,101587.44
2018-06-30T18:03:23.992Z,101585.87
2018-06-30T18:05:52.534Z,101580.75
2018-06-30T18:08:21.489Z,101582.70
2018-06-30T18:10:50.095Z,101594.44
2018-06-30T18:13:18.734Z,101589.91
2018-06-30T18:15:47.412Z,101585.42
2018-06-30T18:18:16.030Z,101593.98
2018-06-30T18:20:44.947Z,101592.80
2018-06-30T18:23:13.496Z,101594.27
2018-06-30T18:25:42.099Z,101594.66
2018-06-30T18:28:10.791Z,101596.86
2018-06-30T18:30:39.647Z,101596.25
2018-06-30T18:33:08.314Z,101598.56
2018-06-30T18:35:37.057Z,101596.84
2018-06-30T18:38:05.684Z,101601.23
2018-06-30T18:40:34.365Z,101609.25
2018-06-30T18:43:02.994Z,101605.23
2018-06-30T18:45:31.639Z,101606.55
2018-06-30T18:48:00.174Z,101618.73
2018-06-30T18:50:28.841Z,101618.58
2018-06-30T18:52:57.477Z,101621.02
2018-06-30T18:55:26.023Z,101630.13
2018-06-30T18:57:54.627Z,101632.20
2018-06-30T19:00:23.237Z,101624.86
2018-06-30T19:02:51.944Z,101618.45
2018-06-30T19:05:20.555Z,101628.11
2018-06-30T19:07:49.956Z,101625.66
2018-06-30T19:10:19.339Z,101627.94
2018-06-30T19:12:48.302Z,101432.84
2018-06-30T19:15:16.957Z,101629.34
2018-06-30T19:17:45.587Z,101632.70
2018-06-30T19:20:14.504Z,101636.31
2018-06-30T19:22:43.719Z,101637.98
2018-06-30T19:25:12.307Z,101641.23
2018-06-30T19:27:40.944Z,101645.00
2018-06-30T19:30:09.614Z,101647.14
2018-06-30T19:32:38.359Z,101648.93
2018-06-30T19:35:07.129Z,101644.77
2018-06-30T19:37:35.871Z,101654.59
2018-06-30T19:40:04.496Z,101652.34
2018-06-30T19:42:33.082Z,101663.50
2018-06-30T19:45:01.600Z,101669.29
2018-06-30T19:47:30.817Z,101669.14
2018-06-30T19:49:59.749Z,101675.30
2018-06-30T19:52:28.558Z,101678.19
2018-06-30T19:54:57.072Z,101677.86
2018-06-30T19:57:25.762Z,101686.31
2018-06-30T19:59:54.275Z,101698.78
2018-06-30T20:02:23.245Z,101698.23
2018-06-30T20:04:52.127Z,101703.06
2018-06-30T20:07:20.959Z,101701.95
2018-06-30T20:09:49.458Z,101704.31
2018-06-30T20:12:18.110Z,101716.77
2018-06-30T20:14:46.623Z,101713.38
2018-06-30T20:17:15.353Z,101708.80
2018-06-30T20:19:44.012Z,101715.27
2018-06-30T20:22:12.514Z,101712.60
2018-06-30T20:24:41.038Z,101714.64
2018-06-30T20:27:09.739Z,101716.64
2018-06-30T20:29:38.293Z,101726.88
2018-06-30T20:32:07.919Z,101725.53
2018-06-30T20:34:37.171Z,101728.97
2018-06-30T20:37:06.104Z,101735.95
2018-06-30T20:39:34.772Z,101735.31
2018-06-30T20:42:03.271Z,101737.41
2018-06-30T20:44:31.976Z,101745.45
2018-06-30T20:47:01.414Z,101746.59
2018-06-30T20:49:30.032Z,101746.24
2018-06-30T20:51:58.688Z,101747.56
2018-06-30T20:54:27.386Z,101754.05
2018-06-30T20:57:00.139Z,101750.44
2018-06-30T20:59:29.695Z,101755.01
2018-06-30T21:01:58.543Z,101762.46
2018-06-30T21:04:27.333Z,101762.06
2018-06-30T21:06:56.016Z,101762.91
2018-06-30T21:09:24.705Z,101756.20
2018-06-30T21:11:53.385Z,101760.66
2018-06-30T21:14:22.174Z,101751.97
2018-06-30T21:16:50.696Z,101757.20
2018-06-30T21:19:19.544Z,101762.03
2018-06-30T21:21:48.155Z,101758.53
2018-06-30T21:24:16.963Z,101749.84
2018-06-30T21:26:45.521Z,101762.13
2018-06-30T21:29:14.183Z,101763.27
2018-06-30T21:31:42.807Z,101762.48
2018-06-30T21:34:11.451Z,101766.30
2018-06-30T21:36:40.072Z,101764.08
2018-06-30T21:39:11.459Z,101767.79
2018-06-30T21:41:40.299Z,101773.39
2018-06-30T21:44:09.026Z,101773.94
2018-06-30T21:46:37.683Z,101779.95
2018-06-30T21:49:06.351Z,101776.06
2018-06-30T21:51:34.926Z,101773.84
2018-06-30T21:54:03.486Z,101773.35
2018-06-30T21:56:32.124Z,101776.19
2018-06-30T21:59:00.766Z,101775.58
2018-06-30T22:01:29.288Z,101784.88
2018-06-30T22:03:58.340Z,101789.04
2018-06-30T22:06:26.973Z,101792.22
2018-06-30T22:08:56.186Z,101793.22
2018-06-30T22:11:24.846Z,101791.19
2018-06-30T22:13:53.487Z,101791.14
2018-06-30T22:16:22.173Z,101789.20
2018-06-30T22:18:50.821Z,101800.18
2018-06-30T22:21:19.426Z,101799.34
2018-06-30T22:23:48.023Z,101802.83
2018-06-30T22:26:16.540Z,101796.42
2018-06-30T22:28:45.175Z,101799.41
2018-06-30T22:31:13.706Z,101806.38
2018-06-30T22:33:42.303Z,101808.41
2018-06-30T22:36:10.879Z,101809.37
2018-06-30T22:38:39.520Z,101820.93
2018-06-30T22:41:08.062Z,101808.27
2018-06-30T22:43:37.959Z,101820.81
2018-06-30T22:46:07.025Z,101718.52
2018-06-30T22:48:35.633Z,101819.86
2018-06-30T22:51:04.183Z,101822.14
2018-06-30T22:53:32.920Z,101825.49
2018-06-30T22:56:01.546Z,101823.56
2018-06-30T22:58:30.122Z,101827.55
2018-06-30T23:00:58.619Z,101821.52
2018-06-30T23:03:27.192Z,101826.27
2018-06-30T23:05:56.325Z,101826.27
2018-06-30T23:08:24.928Z,101830.98
2018-06-30T23:10:53.582Z,101830.27
2018-06-30T23:13:22.681Z,101831.72
2018-06-30T23:15:51.399Z,101834.98
2018-06-30T23:18:19.921Z,101834.23
2018-06-30T23:20:48.606Z,101831.00
2018-06-30T23:23:17.138Z,101835.59
2018-06-30T23:25:45.692Z,101832.33
2018-06-30T23:28:14.357Z,101832.70
2018-06-30T23:30:42.995Z,101829.63
2018-06-30T23:33:11.731Z,101837.74
2018-06-30T23:35:40.407Z,101836.71
2018-06-30T23:38:09.041Z,101842.59
2018-06-30T23:40:37.628Z,101833.67
2018-06-30T23:43:06.363Z,101841.78
2018-06-30T23:45:34.903Z,101842.95
2018-06-30T23:48:03.526Z,101837.59
2018-06-30T23:50:32.108Z,101816.91
2018-06-30T23:53:00.647Z,101844.03
2018-06-30T23:55:29.275Z,101846.98
2018-06-30T23:57:57.853Z,101844.99
